Mauricio Pulgar

Recruteur - Huachipato
20 Nov 2027
Samedi
Processus

Personnalité

Adaptabilité (20) Ambition (5) Controverse (17) Loyauté (8) Pression (12) Professionnalisme (15) Sportivité (1) Tempérament (16)

Profil

Style d'entraînement Démocratique
Diplôme Continental C
Détermination 11
Gestion des joueurs 11
Motivation 9
Discipline 6
Satisfaction professionnelle
100%
Fatigue
0%
Rôle Recruteur
Salaire 67.4K p/s
Contrat 14.03.2028

Performance

Comportement Bon
Efficacité de l'entraînement
48%
Développement des joueurs
30%
Prévention des blessures
55%
Mise en place tactique
25%

Événements récents

A participé à une réunion de recrutement 7j
A recommandé une cible de transfert 7j
A participé à une réunion de recrutement 14j
A recommandé une cible de transfert 14j
A participé à une réunion de recrutement 21j
A recommandé une cible de transfert 21j
A participé à une réunion de recrutement 28j
A recommandé une cible de transfert 28j

Suivi en cours

184
Joueur Club Statut Capacité Confiance Observé Dernière observation Dernier vote
Tim Iroegbunam Hull City Actif 133 / 149 40% 4 29.05.2027 -
Florentino Luís Ipswich Town Actif 146 / 129 40% 3 29.05.2027 -
Ethan Galbraith Swansea City Actif 141 / 138 40% 3 29.05.2027 -
Cian Ashford Cardiff City Actif 108 / 116 40% 2 29.05.2027 -
Jeon Jin-Woo Sheffield Wednesday Actif 124 / 121 40% 1 29.05.2027 -
Guille Rosas Gijón Actif 129 / 137 40% 1 29.05.2027 -
Ramón Terrats Getafe Actif 145 / 141 40% 5 26.05.2027 -
Georgie Gent Barnsley Actif 103 / 104 40% 1 26.05.2027 -
Aidan Morris Middlesbrough Actif 134 / 131 40% 1 26.05.2027 -
Lewis Bate Stockport County Actif 125 / 133 40% 1 25.05.2027 -
Job Ochieng Real Sociedad Actif 109 / 103 40% 2 24.05.2027 -
Louie Barry Sheffield Wednesday Actif 123 / 131 40% 1 24.05.2027 -
Ollie Tanner Cardiff City Actif 108 / 105 40% 1 24.05.2027 -
Welington Southampton Actif 126 / 118 40% 3 23.05.2027 -
Othmane Maamma Watford Actif 129 / 130 40% 1 23.05.2027 -
Nathan Moriah-Welsh Mansfield Town Actif 100 / 121 40% 2 22.05.2027 -
José Córdoba Norwich City Actif 117 / 130 40% 3 22.05.2027 -
Max Johnston Derby County Actif 118 / 119 40% 3 22.05.2027 -
Helinho Toluca Actif 124 / 139 40% 2 22.05.2027 -
Oliver Skipp Leicester City Actif 131 / 137 40% 1 22.05.2027 -
Daniel Kyerewaa Reading Actif 111 / 115 40% 1 22.05.2027 -
Tyrese Campbell Sheffield United Actif 119 / 117 40% 2 21.05.2027 -
Ali Ahmed Norwich City Actif 130 / 119 40% 2 21.05.2027 -
Bosun Lawal Stoke City Actif 132 / 129 40% 2 19.05.2027 -
Brian De Keersmaecker Oxford United Actif 129 / 134 40% 3 19.05.2027 -
Gorka Gorosabel Real Sociedad Actif 100 / 115 40% 2 19.05.2027 -
Tristan Crama Millwall Actif 116 / 132 40% 1 19.05.2027 -
Melker Widell Swansea City Actif 121 / 125 40% 1 17.05.2027 -
Tariq Lamptey Queens Park Rangers Actif 142 / 128 40% 7 16.05.2027 -
Tiago Freitas Benfica Actif 112 / 117 40% 3 15.05.2027 -
Teden Mengi Luton Town Actif 114 / 118 40% 1 15.05.2027 -
Jason Knight Bristol City Actif 138 / 140 40% 2 14.05.2027 -
Kelly Saravanan Salford City Actif 106 / 121 40% 1 14.05.2027 -
Riquelme Thompson-Jones Shrewsbury Town Actif 102 / 124 40% 2 12.05.2027 -
Tony Springett Barnet Actif 108 / 106 40% 2 11.05.2027 -
Zeidane Inoussa Swansea City Actif 130 / 123 40% 2 10.05.2027 -
Finn Azaz Southampton Actif 142 / 128 40% 3 10.05.2027 -
Franck Fomeyem Córdoba Actif 122 / 132 40% 2 09.05.2027 -
Ronald Swansea City Actif 127 / 132 40% 2 09.05.2027 -
Josh Neufville Bradford City Actif 102 / 114 40% 1 09.05.2027 -
Matías Gómez Valencia Actif 122 / 111 40% 1 07.05.2027 -
Caleb Yirenkyi Coventry City Actif 127 / 142 40% 4 06.05.2027 -
Facundo Di Biasi Getafe Actif 113 / 118 40% 2 06.05.2027 -
Sascha Britschgi Catanzaro Actif 112 / 115 40% 1 05.05.2027 -
Jack McGlynn Stoke City Actif 136 / 123 40% 2 04.05.2027 -
Ar'jany Martha Rotherham United Actif 119 / 114 40% 1 04.05.2027 -
Tom Hamer Lincoln City Actif 122 / 112 40% 2 03.05.2027 -
Nobel Mendy Hull City Actif 132 / 136 40% 2 03.05.2027 -
Tommaso Barbieri Cremonese Actif 126 / 123 40% 1 03.05.2027 -
Mihailo Ivanović Millwall Actif 113 / 133 40% 1 01.05.2027 -
Andre Brooks Sheffield United Actif 123 / 119 40% 1 30.04.2027 -
Tyreece Campbell Charlton Athletic Actif 126 / 120 40% 1 30.04.2027 -
Jacob Bedeau Notts County Actif 100 / 103 40% 2 28.04.2027 -
Di'Shon Bernard Sheffield Wednesday Actif 113 / 124 40% 1 26.04.2027 -
Pelle Mattsson Norwich City Actif 129 / 127 40% 2 24.04.2027 -
Luke McNally Bristol City Actif 142 / 139 40% 2 24.04.2027 -
Álex Valle Como Actif 147 / 147 40% 2 24.04.2027 -
Max Conway Bolton Wanderers Actif 122 / 124 40% 1 24.04.2027 -
Kane Wilson Milton Keynes Dons Actif 121 / 124 40% 1 21.04.2027 -
Joe Gelhardt Hull City Actif 136 / 135 40% 1 21.04.2027 -
Relebohile Mofokeng Orlando Pirates Actif 113 / 122 40% 2 18.04.2027 -
Shea Charles Southampton Actif 146 / 136 40% 3 18.04.2027 -
Isaiah Jones Luton Town Actif 118 / 113 40% 1 18.04.2027 -
Lewis Gibson Preston Actif 122 / 125 40% 1 18.04.2027 -
Brian Figueroa Morelia Actif 97 / 101 40% 1 16.04.2027 -
Mathias Jørgensen Blackburn Rovers Actif 116 / 119 40% 1 13.04.2027 -
Giorgi Kvernadze Frosinone Actif 125 / 115 40% 1 13.04.2027 -
Samuel Lucero Defensa y Justicia Actif 121 / 127 40% 4 12.04.2027 -
David Ozoh Derby County Actif 119 / 122 40% 1 12.04.2027 -
Juan Larios Piast Actif 126 / 117 40% 3 10.04.2027 -
Liam Thompson Mansfield Town Actif 122 / 121 40% 1 09.04.2027 -
Salvador Manríquez Dorados Actif 105 / 101 40% 1 09.04.2027 -
Giorgi Chakvetadze Watford Actif 126 / 129 40% 1 08.04.2027 -
Aidomo Emakhu Oxford United Actif 126 / 125 40% 1 07.04.2027 -
Christian Krasnodar Actif 127 / 128 40% 5 06.04.2027 -
Martim Cunha Porto Actif 99 / 104 40% 5 06.04.2027 -
Surprise Manthosi Polokwane City Actif 98 / 103 40% 3 06.04.2027 -
Andrea Carboni Monza Actif 137 / 133 40% 1 06.04.2027 -
Enzo Cardozo Virtus Entella Actif 111 / 105 40% 2 03.04.2027 -
Sam Curtis Swindon Town Actif 106 / 111 40% 4 03.04.2027 -
Edmund Nuhu BA All Stars Actif 69 / 74 40% 1 03.04.2027 -
Bobby Thomas Coventry City Actif 136 / 125 40% 2 02.04.2027 -
Callum Doyle Wrexham Actif 140 / 137 40% 1 02.04.2027 -
Samuele Angori Pisa Actif 126 / 122 40% 1 01.04.2027 -
Imrân Louza Watford Actif 123 / 121 40% 1 01.04.2027 -
Isma Ruiz Córdoba Actif 128 / 126 40% 3 31.03.2027 -
Brooke Norton-Cuffy Hull City Actif 130 / 126 40% 2 30.03.2027 -
Lucas Jetten Cambuur Actif 103 / 126 40% 2 28.03.2027 -
Leonardo Mendicino Bari Actif 124 / 119 40% 1 28.03.2027 -
Jacques Ekomié Wrexham Actif 139 / 140 40% 1 27.03.2027 -
Aleksa Terzić Frosinone Actif 133 / 136 40% 1 27.03.2027 -
Oliver Arblaster Sheffield United Actif 124 / 123 40% 1 26.03.2027 -
Max Bird Birmingham Actif 141 / 130 40% 1 22.03.2027 -
James Morris Leyton Orient Actif 128 / 120 40% 1 21.03.2027 -
Thiago Silvero Sevilla Actif 119 / 129 40% 4 19.03.2027 -
Bakary Haïdara Hearts of Oak Actif 110 / 97 40% 3 18.03.2027 -
Eivind Helland Bologna Actif 119 / 123 40% 1 17.03.2027 -
Andrey Ivlev Nizhniy Novgorod Actif 97 / 108 40% 1 17.03.2027 -
Rashid Abubakar Ashanti Gold Actif 106 / 96 40% 1 06.03.2027 -
Kayne Ramsay Charlton Athletic Actif 117 / 114 40% 1 06.03.2027 -
Christos Mouzakitis Hull City Actif 135 / 143 40% 2 01.03.2027 -
Abraham Paintsil Hasaacas Actif 75 / 88 40% 1 01.03.2027 -
Cemran Dansin Orlando Pirates Actif 108 / 128 40% 1 01.03.2027 -
Nazareno Roselli Defensa y Justicia Actif 116 / 119 40% 1 28.02.2027 -
Jofre Torrents Ajax Actif 122 / 119 40% 2 26.02.2027 -
Mohammed Wakaso Hasaacas Actif 87 / 113 40% 1 26.02.2027 -
James Dornelly Peterborough United Actif 113 / 117 40% 1 25.02.2027 -
Ignacio Perruzzi Celta Actif 134 / 126 40% 1 23.02.2027 -
Jonathan De Irastorza Levante Actif 112 / 128 40% 4 21.02.2027 -
Macaulley Kuma Heart of Lions Actif 82 / 60 40% 1 21.02.2027 -
Gladson Sulemana Liberty Professionals Actif 101 / 112 40% 1 21.02.2027 -
Axel Frugone Betis Actif 102 / 109 40% 1 18.02.2027 -
Edmund Inusah WAFA Actif 68 / 82 40% 1 15.02.2027 -
Zoltan Bese Haladas Actif 114 / 125 40% 1 14.02.2027 -
Eliás Montiel Atlético Madrid Actif 124 / 132 40% 1 14.02.2027 -
Tommaso Cecotti Carpi Actif 97 / 107 40% 1 13.02.2027 -
Maxwell Azafokpe Inter Allies Actif 71 / 85 40% 1 08.02.2027 -
Victor Ehibe Gazelle Garoua Actif 77 / 99 40% 1 08.02.2027 -
Nahuel Leivas Montevideo City Torque Actif 109 / 119 40% 1 03.02.2027 -
Riley Owen Wycombe Wanderers Actif 105 / 94 40% 1 02.02.2027 -
Marcelo Camargo Alavés Actif 93 / 101 40% 1 02.02.2027 -
Bianneider Tamayo Universidad de Chile Actif 99 / 106 69% 1 28.12.2026 Approuver
Francisco Álvarez Argentinos Juniors Actif 117 / 133 40% 1 30.11.2026 -
Walter Juárez Güemes Actif 108 / 115 40% 1 30.11.2026 -
Rodrigo Chagas Juventud Actif 118 / 126 40% 1 27.11.2026 -
Facundo Miño Deportivo Riestra Actif 116 / 121 40% 2 26.11.2026 -
Federico Pérez Agropecuario Argentino Actif 111 / 113 40% 2 26.11.2026 -
Pablo Ruiz Real Salt Lake Actif 121 / 125 40% 2 25.11.2026 -
Tomás Escalante Plaza Colonia Actif 122 / 126 40% 1 25.11.2026 -
Mathías Silvera Chaco For Ever Actif 101 / 105 40% 3 24.11.2026 -
Lucas de los Santos Defensor Sporting Actif 115 / 109 40% 1 24.11.2026 -
Edgar Elizalde Defensor Sporting Actif 110 / 115 40% 1 21.11.2026 -
Lucas Agazzi Defensor Sporting Actif 128 / 120 40% 1 21.11.2026 -
Leighton Clarkson Blackpool Actif 121 / 108 40% 1 19.11.2026 -
Caolan Boyd-Munce Wycombe Wanderers Actif 125 / 108 40% 1 19.11.2026 -
Marcus McGuane Huddersfield Town Actif 131 / 115 40% 1 18.11.2026 -
Thulani Phiri Platinum Stars Actif 122 / 129 40% 1 18.11.2026 -
Idris El Mizouni Leyton Orient Actif 111 / 113 40% 1 17.11.2026 -
Conrad Wallem Aalborg Actif 133 / 142 40% 2 16.11.2026 -
John Mercado Sparta Prague Actif 130 / 109 40% 1 14.11.2026 -
Tomás Jacob Atlanta United FC Actif 111 / 122 40% 1 11.11.2026 -
Thomas Galdames Krylya Sovetov Actif 109 / 124 40% 1 11.11.2026 -
Kamogelo Sebelebele Orlando Pirates Actif 120 / 115 40% 1 09.11.2026 -
Tobías Bovone Deportivo Pereira Actif 107 / 110 40% 2 07.11.2026 -
Thabang Matuludi Polokwane City Actif 101 / 99 40% 1 07.11.2026 -
Bautista Barros Schelotto Gimnasia La Plata Actif 114 / 124 40% 1 06.11.2026 -
Elías Báez Atlanta United FC Actif 128 / 128 40% 1 06.11.2026 -
Diego González Zaragoza Actif 109 / 111 40% 1 06.11.2026 -
Josh Edwards Charlton Athletic Actif 132 / 129 40% 1 05.11.2026 -
Tomás Alarcón Colo-Colo Actif 114 / 128 40% 1 05.11.2026 -
Emil Ceïde Rosenborg Actif 128 / 135 40% 1 04.11.2026 -
Jens Petter Hauge Bodo/Glimt Actif 131 / 148 40% 1 04.11.2026 -
Alan Forneris Racing Club Actif 113 / 115 40% 1 04.11.2026 -
Japhet Sery Larsen Philadelphia Union Actif 120 / 130 40% 2 01.11.2026 -
Guillem Molina Huesca Actif 116 / 115 40% 1 01.11.2026 -
Javi Mier Jagiellonia Actif 112 / 96 40% 1 29.10.2026 -
Lukáš Červ Viktoria Plzen Actif 139 / 139 40% 2 27.10.2026 -
Nahuel Brunet Godoy Cruz Actif 118 / 102 40% 1 25.10.2026 -
Alexander Aravena Portland Timbers Actif 134 / 123 40% 1 25.10.2026 -
Alexis Steimbach Gimnasia La Plata Actif 118 / 119 40% 1 25.10.2026 -
Sead Hakšabanović Malmo FF Actif 122 / 107 40% 1 25.10.2026 -
Valentín Fenoglio Estudiantes Actif 106 / 104 40% 1 23.10.2026 -
Mateo Silvetti Inter Miami CF Actif 112 / 127 40% 1 23.10.2026 -
Rodrigo Huescas FC Copenhagen Actif 127 / 140 40% 1 23.10.2026 -
Nicolás Fernández Maipú Actif 103 / 103 40% 2 17.10.2026 -
Franco Lorenzón San Lorenzo Actif 123 / 108 40% 1 17.10.2026 -
Daniel González Universidad Catolica Actif 110 / 128 40% 1 17.10.2026 -
Lucas Assadi AIK Actif 122 / 139 40% 1 08.10.2026 -
Kelvin Yeboah Minnesota United FC Actif 136 / 114 40% 1 06.10.2026 -
Lucas Richarte Temperley Actif 92 / 112 40% 1 05.10.2026 -
Víctor Felipe Méndez Colo-Colo Actif 120 / 126 40% 1 05.10.2026 -
Mauricio Cardillo San Lorenzo Actif 117 / 120 40% 1 08.09.2026 -
Juan Feliú Nacional Actif 109 / 104 40% 1 08.09.2026 -
Patricio Pizarro Huracán Actif 106 / 118 40% 1 08.09.2026 -
Vicente Durán San Luis Actif 99 / 117 40% 1 07.09.2026 -
Giuliano Pierini San Lorenzo Actif 75 / 90 40% 1 11.08.2026 -
Iñaki Ipharraguerre Sarmiento Actif 79 / 84 40% 2 07.08.2026 -
Martín Yapura Deportivo Riestra Actif 76 / 73 40% 1 04.08.2026 -
Derlis Martínez Olimpia Actif 82 / 84 40% 1 04.08.2026 -
Francisco Manenti Metropolitanos Actif 99 / 108 40% 1 03.08.2026 -
Ignacio Aliseda Cerro Porteno Actif 134 / 131 40% 1 03.08.2026 -
Santiago Kubiszyn Morón Actif 110 / 107 40% 1 02.08.2026 -
Pedro Pedraza Pachuca Actif 125 / 123 40% 1 02.08.2026 -
Lucas Souto Defensa y Justicia Actif 116 / 125 40% 1 02.08.2026 -